Time;durP1;ratioP1;P1;durP2;ratioP2;P2;SDS_P1;SDS_P2;PMS_P1;PMS_P2;Temp;Humidity;BMP_temperature;BMP_pressure;BME280_temperature;BME280_humidity;BME280_pressure;Samples;Min_cycle;Max_cycle;Signal;HPM_P1;HPM_P2
2023/05/08 00:01:47;;;;;;;86.93;39.85;;;13.20;99.90;;;;;;5011214;28;20046;-89
2023/05/08 00:04:34;;;;;;;86.43;41.90;;;13.20;99.90;;;;;;4998060;28;20053;-86
2023/05/08 00:07:24;;;;;;;75.82;38.20;;;13.20;99.90;;;;;;4987341;28;20061;-89
2023/05/08 00:10:11;;;;;;;88.80;42.05;;;13.20;99.90;;;;;;4994133;28;20057;-89
2023/05/08 00:12:59;;;;;;;89.18;42.05;;;13.20;99.90;;;;;;5012427;28;20045;-86
2023/05/08 00:15:46;;;;;;;266.40;42.85;;;13.20;99.90;;;;;;5006293;28;20115;-86
2023/05/08 00:18:36;;;;;;;113.38;39.95;;;13.20;99.90;;;;;;5012716;28;20531;-86
2023/05/08 00:21:23;;;;;;;128.85;40.75;;;13.20;99.90;;;;;;5014064;28;20049;-87
2023/05/08 00:24:10;;;;;;;399.13;45.38;;;13.20;99.90;;;;;;5020861;28;20050;-85
2023/05/08 00:26:58;;;;;;;69.35;31.90;;;13.20;99.90;;;;;;5014469;28;20081;-86
2023/05/08 00:29:49;;;;;;;82.95;38.58;;;13.20;99.90;;;;;;5027889;28;20072;-84
2023/05/08 00:32:36;;;;;;;77.13;36.33;;;13.20;99.90;;;;;;5027655;28;20041;-83
2023/05/08 00:35:26;;;;;;;82.05;38.08;;;13.20;99.90;;;;;;5034976;28;20034;-87
2023/05/08 00:38:13;;;;;;;96.07;42.42;;;13.20;99.90;;;;;;5020156;28;20045;-86
2023/05/08 00:41:00;;;;;;;87.68;39.70;;;13.10;99.90;;;;;;5032307;28;20068;-86
2023/05/08 00:43:48;;;;;;;93.25;42.13;;;13.10;99.90;;;;;;5007257;28;20116;-86
2023/05/08 00:46:35;;;;;;;78.80;37.97;;;13.20;99.90;;;;;;5002369;28;20441;-86
2023/05/08 00:49:24;;;;;;;73.88;37.50;;;13.20;99.90;;;;;;5004182;28;20112;-87
2023/05/08 00:52:13;;;;;;;87.97;41.50;;;13.20;99.90;;;;;;5005005;28;20053;-86
2023/05/08 00:55:03;;;;;;;102.38;43.55;;;13.20;99.90;;;;;;4998539;28;20053;-85
2023/05/08 00:57:51;;;;;;;100.03;44.10;;;13.20;99.90;;;;;;5004066;28;20057;-87
2023/05/08 01:00:43;;;;;;;95.32;44.67;;;13.20;99.90;;;;;;5000800;28;20469;-87
2023/05/08 01:03:33;;;;;;;92.85;43.30;;;13.20;99.90;;;;;;4983230;28;20102;-87
2023/05/08 01:06:20;;;;;;;89.00;43.28;;;13.20;99.90;;;;;;5016041;28;20046;-87
2023/05/08 01:09:13;;;;;;;100.20;44.42;;;13.20;99.90;;;;;;5005803;28;20061;-87
2023/05/08 01:12:27;;;;;;;99.63;43.75;;;13.20;99.90;;;;;;5012023;28;20057;-85
2023/05/08 01:15:26;;;;;;;106.57;45.83;;;13.20;99.90;;;;;;5007539;28;20422;-85
2023/05/08 01:18:18;;;;;;;116.38;48.67;;;13.20;99.90;;;;;;4996946;28;20633;-86
2023/05/08 01:21:23;;;;;;;102.93;45.58;;;13.10;99.90;;;;;;5014578;28;20396;-87
2023/05/08 01:24:21;;;;;;;101.53;44.15;;;13.20;99.90;;;;;;5011385;28;20049;-85
2023/05/08 01:27:14;;;;;;;113.05;47.28;;;13.10;99.90;;;;;;5002198;28;20046;-86
2023/05/08 01:30:10;;;;;;;104.03;45.60;;;13.10;99.90;;;;;;4997344;28;20584;-86
2023/05/08 01:33:08;;;;;;;109.68;48.63;;;13.10;99.90;;;;;;5004192;28;20115;-89
2023/05/08 01:36:05;;;;;;;92.78;45.65;;;13.10;99.90;;;;;;5000399;28;20042;-87
2023/05/08 01:38:52;;;;;;;94.35;43.63;;;13.10;99.90;;;;;;5007876;28;20069;-87
2023/05/08 01:41:45;;;;;;;111.60;47.10;;;13.10;99.90;;;;;;5010981;28;20050;-88
2023/05/08 01:44:40;;;;;;;116.85;49.28;;;13.10;99.90;;;;;;5010909;28;20104;-89
2023/05/08 01:47:31;;;;;;;117.88;48.72;;;13.20;99.90;;;;;;5014805;28;20060;-87
2023/05/08 01:50:29;;;;;;;109.50;50.60;;;13.10;99.90;;;;;;5001716;28;20074;-85
2023/05/08 01:53:35;;;;;;;108.32;49.60;;;13.10;99.90;;;;;;5009589;28;20038;-86
2023/05/08 01:56:28;;;;;;;100.50;45.38;;;13.10;99.90;;;;;;5000404;28;20061;-87
2023/05/08 01:59:20;;;;;;;98.45;44.88;;;13.10;99.90;;;;;;4998300;28;20050;-88
2023/05/08 02:02:09;;;;;;;92.70;43.22;;;13.10;99.90;;;;;;5003402;28;20053;-87
2023/05/08 02:05:04;;;;;;;93.22;42.70;;;13.10;99.90;;;;;;5003479;28;20057;-87
2023/05/08 02:07:51;;;;;;;108.25;46.50;;;13.10;99.90;;;;;;5000974;28;20473;-86
2023/05/08 02:10:40;;;;;;;93.25;44.63;;;13.10;99.90;;;;;;4999588;28;20049;-87
2023/05/08 02:13:30;;;;;;;99.22;46.65;;;13.10;99.90;;;;;;4996463;28;20104;-88
2023/05/08 02:16:21;;;;;;;116.40;49.17;;;13.10;99.90;;;;;;5015980;28;20049;-88
2023/05/08 02:19:10;;;;;;;86.10;41.75;;;13.10;99.90;;;;;;4991080;28;20116;-87
2023/05/08 02:21:59;;;;;;;94.30;43.53;;;13.00;99.90;;;;;;5015326;28;20066;-87
2023/05/08 02:24:47;;;;;;;106.97;46.42;;;13.00;99.90;;;;;;5003713;28;20334;-87
2023/05/08 02:27:38;;;;;;;101.43;44.17;;;13.00;99.90;;;;;;4998142;28;20404;-87
2023/05/08 02:30:26;;;;;;;112.88;46.70;;;13.00;99.90;;;;;;5003943;28;20051;-87
2023/05/08 02:33:14;;;;;;;93.78;45.58;;;13.00;99.90;;;;;;5005425;28;20133;-87
2023/05/08 02:36:03;;;;;;;97.95;45.80;;;12.90;99.90;;;;;;4999098;28;20042;-87
2023/05/08 02:38:53;;;;;;;83.93;42.50;;;12.90;99.90;;;;;;4997246;28;20063;-88
2023/05/08 02:41:41;;;;;;;82.03;40.95;;;12.90;99.90;;;;;;5003511;28;20057;-88
2023/05/08 02:44:29;;;;;;;84.45;43.03;;;12.90;99.90;;;;;;5001185;28;20128;-89
2023/05/08 02:47:29;;;;;;;93.70;44.35;;;12.80;99.90;;;;;;4990878;28;20050;-86
2023/05/08 02:50:33;;;;;;;89.10;44.05;;;12.80;99.90;;;;;;5006266;28;20173;-87
2023/05/08 02:53:37;;;;;;;83.55;43.10;;;12.80;99.90;;;;;;5013871;28;20054;-89
2023/05/08 02:56:34;;;;;;;89.20;43.03;;;12.80;99.90;;;;;;5002229;28;20045;-89
2023/05/08 02:59:28;;;;;;;80.85;40.65;;;12.80;99.90;;;;;;4987303;28;20069;-89
2023/05/08 03:02:24;;;;;;;88.72;41.78;;;12.80;99.90;;;;;;5011730;28;20050;-90
2023/05/08 03:05:42;;;;;;;99.90;43.17;;;12.80;99.90;;;;;;4997012;28;20035;-90
2023/05/08 03:08:34;;;;;;;121.72;50.83;;;12.90;99.90;;;;;;5005409;28;20112;-90
2023/05/08 03:11:27;;;;;;;128.85;52.03;;;12.90;99.90;;;;;;4999263;28;20038;-90
2023/05/08 03:14:18;;;;;;;166.48;51.60;;;12.90;99.90;;;;;;5017246;28;20042;-89
2023/05/08 03:17:07;;;;;;;145.88;49.80;;;12.90;99.90;;;;;;5028223;28;20064;-88
2023/05/08 03:20:01;;;;;;;125.13;48.00;;;12.90;99.90;;;;;;5016163;28;20041;-90
2023/05/08 03:22:52;;;;;;;94.18;45.78;;;12.80;99.90;;;;;;5012432;28;20061;-91
2023/05/08 03:25:42;;;;;;;98.20;45.40;;;12.80;99.90;;;;;;5022518;28;20042;-91
2023/05/08 03:28:30;;;;;;;91.22;46.47;;;12.80;99.90;;;;;;5017580;28;20118;-88
2023/05/08 03:31:22;;;;;;;85.63;42.80;;;12.80;99.90;;;;;;5014119;28;20155;-89
2023/05/08 03:34:11;;;;;;;93.30;43.30;;;12.80;99.90;;;;;;5016073;28;20060;-89
2023/05/08 03:36:59;;;;;;;74.53;38.42;;;12.80;99.90;;;;;;5015516;28;20080;-90
2023/05/08 03:39:46;;;;;;;78.72;40.50;;;12.80;99.90;;;;;;5000866;28;20064;-89
2023/05/08 03:42:34;;;;;;;97.55;45.13;;;12.80;99.90;;;;;;5010663;28;20046;-84
2023/05/08 03:45:26;;;;;;;119.10;49.10;;;12.80;99.90;;;;;;5015055;28;20050;-90
2023/05/08 03:48:14;;;;;;;300.60;54.78;;;12.80;99.90;;;;;;5009667;28;20038;-92
2023/05/08 03:51:02;;;;;;;156.73;48.75;;;12.80;99.90;;;;;;5001204;28;20662;-88
2023/05/08 03:53:50;;;;;;;134.73;46.35;;;12.70;99.90;;;;;;5007360;28;20102;-90
2023/05/08 03:56:37;;;;;;;138.07;47.08;;;12.70;99.90;;;;;;5008790;28;20112;-90
2023/05/08 03:59:30;;;;;;;136.90;48.10;;;12.70;99.90;;;;;;5007059;28;20054;-89
2023/05/08 04:02:23;;;;;;;143.45;48.35;;;12.70;99.90;;;;;;5018208;28;20061;-91
2023/05/08 04:05:20;;;;;;;112.60;43.63;;;12.60;99.90;;;;;;5007601;28;20046;-90
2023/05/08 04:08:18;;;;;;;1067.57;78.97;;;12.60;99.90;;;;;;4990551;28;20104;-88
2023/05/08 04:11:22;;;;;;;676.70;65.70;;;12.60;99.90;;;;;;5014553;28;20456;-91
2023/05/08 04:14:15;;;;;;;396.42;53.75;;;12.60;99.90;;;;;;5005536;28;20104;-90
2023/05/08 04:17:08;;;;;;;236.45;53.47;;;12.60;99.90;;;;;;5014386;28;20053;-89
2023/05/08 04:20:01;;;;;;;506.98;60.05;;;12.70;99.90;;;;;;4998462;28;20393;-89
2023/05/08 04:22:52;;;;;;;379.60;53.25;;;12.70;99.90;;;;;;5010838;28;20034;-83
2023/05/08 04:25:41;;;;;;;175.18;48.97;;;12.70;99.90;;;;;;5020246;28;20378;-86
2023/05/08 04:28:32;;;;;;;80.63;39.65;;;12.80;99.90;;;;;;5006935;28;20381;-86
2023/05/08 04:31:21;;;;;;;136.95;49.13;;;12.80;99.90;;;;;;5011699;28;20496;-87
2023/05/08 04:34:09;;;;;;;162.30;49.53;;;12.90;99.90;;;;;;5003265;28;20125;-86
2023/05/08 04:36:56;;;;;;;444.85;62.20;;;13.00;99.90;;;;;;4998725;28;20108;-84
2023/05/08 04:39:46;;;;;;;265.80;54.03;;;12.90;99.90;;;;;;5007457;28;20403;-86
2023/05/08 04:42:37;;;;;;;163.23;55.30;;;12.90;99.90;;;;;;4995025;28;20049;-86
2023/05/08 04:45:24;;;;;;;123.35;51.13;;;13.00;99.90;;;;;;5000230;28;20054;-86
2023/05/08 04:48:12;;;;;;;109.38;48.00;;;13.00;99.90;;;;;;5009589;28;20390;-85
2023/05/08 04:50:59;;;;;;;93.70;43.47;;;13.10;99.90;;;;;;5003158;28;20462;-86
2023/05/08 04:53:46;;;;;;;152.48;55.67;;;13.20;99.90;;;;;;5005635;28;20453;-85
2023/05/08 04:56:34;;;;;;;232.63;60.22;;;13.30;99.90;;;;;;5021454;28;20046;-84
2023/05/08 04:59:23;;;;;;;315.00;65.13;;;13.20;99.90;;;;;;5017344;28;20057;-86
2023/05/08 05:02:14;;;;;;;315.88;65.10;;;13.10;99.90;;;;;;5015127;28;20052;-91
2023/05/08 05:05:03;;;;;;;177.77;57.17;;;13.00;99.90;;;;;;5019593;28;20100;-89
2023/05/08 05:07:50;;;;;;;178.98;56.20;;;13.00;99.90;;;;;;5022843;28;20046;-90
2023/05/08 05:10:40;;;;;;;274.38;60.15;;;13.00;99.90;;;;;;5004425;28;20112;-88
2023/05/08 05:13:28;;;;;;;140.68;53.45;;;13.10;99.90;;;;;;5025388;28;20184;-90
2023/05/08 05:16:15;;;;;;;178.77;59.78;;;13.10;99.90;;;;;;5020989;28;20041;-91
2023/05/08 05:19:03;;;;;;;165.93;57.40;;;13.20;99.90;;;;;;5005038;28;20772;-91
2023/05/08 05:21:53;;;;;;;162.40;57.88;;;13.20;99.90;;;;;;5001211;28;20056;-90
2023/05/08 05:24:41;;;;;;;173.77;62.10;;;13.10;99.90;;;;;;5008663;28;20065;-91
2023/05/08 05:27:28;;;;;;;175.55;60.92;;;13.10;99.90;;;;;;5019940;28;20062;-90
2023/05/08 05:30:15;;;;;;;155.55;57.70;;;13.10;99.90;;;;;;5019846;28;20042;-92
2023/05/08 05:33:03;;;;;;;189.80;64.78;;;13.10;99.90;;;;;;5021963;28;20102;-86
2023/05/08 05:35:50;;;;;;;187.15;62.53;;;13.20;99.90;;;;;;5012817;28;20050;-88
2023/05/08 05:38:40;;;;;;;157.98;56.70;;;13.30;99.90;;;;;;5003668;28;20058;-90
2023/05/08 05:41:28;;;;;;;161.13;58.55;;;13.30;99.90;;;;;;4996406;28;20052;-88
2023/05/08 05:44:17;;;;;;;184.55;61.53;;;13.40;99.90;;;;;;5017118;28;20499;-86
2023/05/08 05:47:11;;;;;;;148.38;56.97;;;13.50;99.90;;;;;;5005582;28;20512;-86
2023/05/08 05:53:17;;;;;;;175.90;58.70;;;13.60;99.90;;;;;;5017012;28;20472;-84
2023/05/08 05:56:05;;;;;;;152.98;58.63;;;13.60;99.90;;;;;;5013525;28;20330;-86
2023/05/08 06:01:28;;;;;;;132.73;50.42;;;13.60;99.90;;;;;;5678767;22;20427;-87
2023/05/08 06:04:17;;;;;;;161.55;58.10;;;13.60;99.90;;;;;;4995285;28;20047;-89
2023/05/08 06:07:06;;;;;;;188.52;61.38;;;13.60;99.90;;;;;;5004734;28;20049;-91
2023/05/08 06:10:06;;;;;;;154.05;54.70;;;13.60;99.90;;;;;;5015499;28;20061;-89
2023/05/08 06:13:19;;;;;;;149.65;55.53;;;13.60;99.90;;;;;;5000766;28;20650;-89
2023/05/08 06:16:29;;;;;;;148.20;54.53;;;13.60;99.90;;;;;;5003483;28;20042;-91
2023/05/08 06:42:38;;;;;;;161.75;56.88;;;13.50;99.90;;;;;;5026521;28;20045;-89
2023/05/08 06:45:45;;;;;;;154.40;58.22;;;13.60;99.90;;;;;;5022856;28;20045;-90
2023/05/08 06:58:11;;;;;;;149.10;56.90;;;13.70;99.90;;;;;;5819101;22;20924;-88
2023/05/08 07:01:03;;;;;;;131.50;53.38;;;13.70;99.90;;;;;;4991664;28;20072;-87
2023/05/08 07:03:54;;;;;;;122.53;52.90;;;13.80;99.90;;;;;;5015320;28;20054;-88
2023/05/08 07:06:57;;;;;;;117.72;49.17;;;13.90;99.90;;;;;;5011293;28;20058;-89
2023/05/08 07:09:46;;;;;;;114.85;52.35;;;14.00;99.90;;;;;;4996005;28;20082;-88
2023/05/08 07:13:01;;;;;;;;;;;;;;;;;;;;;
2023/05/08 07:16:04;;;;;;;;;;;;;;;;;;;;;
2023/05/08 07:19:09;;;;;;;93.88;45.55;;;14.20;99.90;;;;;;5010857;28;20104;-87
2023/05/08 07:22:09;;;;;;;88.75;44.45;;;14.40;99.90;;;;;;5002229;28;20114;-85
2023/05/08 07:25:03;;;;;;;76.95;42.47;;;14.60;99.90;;;;;;4989006;28;20437;-86
2023/05/08 07:27:53;;;;;;;66.50;38.67;;;15.00;99.90;;;;;;4983747;28;20658;-86
2023/05/08 07:31:05;;;;;;;61.63;35.30;;;15.20;99.90;;;;;;4994786;28;20038;-89
2023/05/08 07:34:14;;;;;;;51.50;32.88;;;15.30;99.90;;;;;;5001641;28;20137;-88
2023/05/08 07:37:02;;;;;;;40.13;27.80;;;15.70;99.90;;;;;;5012902;28;20626;-87
2023/05/08 07:39:53;;;;;;;36.40;25.98;;;16.00;99.90;;;;;;4998076;28;20410;-90
2023/05/08 07:43:04;;;;;;;30.58;22.13;;;16.10;99.90;;;;;;5011007;28;20181;-88
2023/05/08 07:46:07;;;;;;;31.67;23.35;;;16.00;99.90;;;;;;5003340;28;20053;-88
2023/05/08 07:49:05;;;;;;;31.20;22.73;;;15.70;99.90;;;;;;5007993;28;20050;-89
2023/05/08 07:52:20;;;;;;;30.88;22.27;;;15.70;99.90;;;;;;5000656;28;20356;-89
2023/05/08 07:58:36;;;;;;;31.77;22.48;;;16.10;99.90;;;;;;5002760;28;20121;-88
2023/05/08 08:01:27;;;;;;;29.17;22.00;;;16.20;99.90;;;;;;4994224;28;20479;-85
2023/05/08 08:04:32;;;;;;;24.10;18.55;;;16.30;99.90;;;;;;4999838;28;20049;-90
2023/05/08 08:07:45;;;;;;;22.13;17.38;;;16.40;99.90;;;;;;5000313;28;20128;-85
2023/05/08 08:10:38;;;;;;;23.70;17.55;;;16.40;99.90;;;;;;5009767;28;20459;-83
2023/05/08 08:13:27;;;;;;;23.98;18.17;;;16.40;99.90;;;;;;5011184;28;20042;-83
2023/05/08 08:16:44;;;;;;;28.70;17.65;;;16.60;99.90;;;;;;4994626;28;20064;-81
2023/05/08 08:19:32;;;;;;;22.60;17.38;;;16.70;99.90;;;;;;5009280;28;20159;-84
2023/05/08 08:22:23;;;;;;;22.65;16.70;;;17.00;99.90;;;;;;5012740;28;20064;-85
2023/05/08 08:25:12;;;;;;;24.08;18.63;;;17.00;99.90;;;;;;5016542;28;20053;-85
2023/05/08 08:28:00;;;;;;;27.10;19.73;;;16.90;99.90;;;;;;5008045;28;20193;-85
2023/05/08 08:30:48;;;;;;;24.20;20.05;;;16.50;99.90;;;;;;5011016;28;20437;-86
2023/05/08 08:33:36;;;;;;;27.35;21.08;;;16.20;99.90;;;;;;5005613;28;20061;-87
2023/05/08 08:36:26;;;;;;;27.23;21.80;;;15.80;99.90;;;;;;5010055;28;20053;-88
2023/05/08 08:39:22;;;;;;;29.90;21.85;;;15.60;99.90;;;;;;4998684;28;20054;-86
2023/05/08 08:42:15;;;;;;;25.60;22.50;;;15.30;99.90;;;;;;4986983;28;20229;-87
2023/05/08 08:45:05;;;;;;;32.22;24.77;;;15.10;99.90;;;;;;5009189;28;20050;-88
2023/05/08 08:48:00;;;;;;;33.42;25.83;;;15.00;99.90;;;;;;5009859;28;20801;-85
2023/05/08 08:51:01;;;;;;;35.10;26.60;;;14.80;99.90;;;;;;5010725;28;20132;-86
2023/05/08 08:54:04;;;;;;;37.53;28.58;;;14.80;99.90;;;;;;4990139;28;20046;-86
2023/05/08 08:56:59;;;;;;;37.30;30.00;;;14.70;99.90;;;;;;5004618;28;20041;-86
2023/05/08 08:59:48;;;;;;;41.65;31.25;;;14.60;99.90;;;;;;5010266;28;20120;-86
2023/05/08 09:02:38;;;;;;;44.58;31.63;;;14.60;99.90;;;;;;4994746;28;20055;-88
2023/05/08 09:05:28;;;;;;;39.33;30.30;;;14.70;99.90;;;;;;4993036;28;20049;-86
2023/05/08 09:08:19;;;;;;;38.92;30.27;;;14.60;99.90;;;;;;4992040;28;20081;-84
2023/05/08 09:11:09;;;;;;;50.97;32.38;;;14.50;99.90;;;;;;4997431;28;20046;-86
2023/05/08 09:14:06;;;;;;;41.85;32.30;;;14.50;99.90;;;;;;4995661;28;20049;-89
2023/05/08 09:16:58;;;;;;;44.30;31.42;;;14.40;99.90;;;;;;5007886;28;20038;-89
2023/05/08 09:19:52;;;;;;;42.70;31.83;;;14.30;99.90;;;;;;4996191;28;20121;-89
2023/05/08 09:23:02;;;;;;;44.67;33.05;;;14.10;99.90;;;;;;5005414;28;20050;-85
2023/05/08 09:26:25;;;;;;;47.25;33.95;;;14.10;99.90;;;;;;4996370;28;20038;-89
2023/05/08 09:29:14;;;;;;;47.03;32.80;;;14.10;99.90;;;;;;4999246;28;20042;-88
2023/05/08 09:36:32;;;;;;;50.38;33.47;;;14.00;99.90;;;;;;5003724;28;20042;-90
2023/05/08 09:39:30;;;;;;;49.97;33.35;;;14.00;99.90;;;;;;5013682;28;20053;-88
2023/05/08 09:42:18;;;;;;;45.15;31.98;;;14.00;99.90;;;;;;5010783;28;20045;-90
2023/05/08 09:45:17;;;;;;;;;;;;;;;;;;;;;
2023/05/08 09:48:10;;;;;;;52.10;33.03;;;14.10;99.90;;;;;;5013630;28;20046;-88
2023/05/08 09:54:31;;;;;;;52.88;34.60;;;14.10;99.90;;;;;;5013154;28;20038;-90
2023/05/08 09:57:18;;;;;;;43.22;29.35;;;14.20;99.90;;;;;;5009399;28;20052;-90
2023/05/08 10:00:47;;;;;;;43.90;29.90;;;14.20;99.90;;;;;;4995971;28;20124;-89
2023/05/08 10:04:00;;;;;;;35.72;26.38;;;14.30;99.90;;;;;;4995253;28;20089;-90
2023/05/08 10:07:29;;;;;;;38.58;27.05;;;14.40;99.90;;;;;;5010336;28;20070;-88
2023/05/08 10:14:06;;;;;;;;;;;;;;;;;;;;;
2023/05/08 10:17:43;;;;;;;39.13;24.83;;;14.30;99.90;;;;;;5024425;28;20050;-89
2023/05/08 10:20:31;;;;;;;;;;;14.30;99.90;;;;;;5023347;28;20172;-87
2023/05/08 10:23:18;;;;;;;38.38;24.10;;;14.40;99.90;;;;;;5015453;28;19921;-89
2023/05/08 10:26:12;;;;;;;31.42;21.17;;;14.40;99.90;;;;;;5010583;28;20046;-87
2023/05/08 10:29:11;;;;;;;28.25;21.33;;;14.50;99.90;;;;;;5004683;28;20057;-88
2023/05/08 10:31:59;;;;;;;26.10;19.70;;;14.60;99.90;;;;;;5008143;28;20120;-88
2023/05/08 10:34:59;;;;;;;28.77;19.92;;;14.60;99.90;;;;;;4995487;28;20061;-86
2023/05/08 10:37:48;;;;;;;31.08;22.17;;;14.60;99.90;;;;;;5006690;28;20049;-86
2023/05/08 10:40:37;;;;;;;28.65;21.70;;;14.60;99.90;;;;;;4994230;28;20535;-86
2023/05/08 10:43:27;;;;;;;30.17;21.33;;;14.70;99.90;;;;;;4996291;28;20046;-87
2023/05/08 10:46:52;;;;;;;27.42;21.25;;;14.90;99.90;;;;;;5005724;28;20128;-86
2023/05/08 10:50:15;;;;;;;27.20;20.40;;;14.90;99.90;;;;;;4994759;28;20038;-86
2023/05/08 10:53:17;;;;;;;22.83;18.75;;;14.90;99.90;;;;;;4999728;28;20461;-87
2023/05/08 10:56:05;;;;;;;23.27;18.70;;;14.90;99.90;;;;;;4995208;28;20455;-87
2023/05/08 10:59:07;;;;;;;21.95;17.40;;;14.90;99.90;;;;;;4994080;28;20049;-88
2023/05/08 11:02:16;;;;;;;26.00;16.80;;;15.00;99.90;;;;;;5002093;28;20066;-85
2023/05/08 11:05:16;;;;;;;20.73;16.40;;;15.10;99.90;;;;;;5007461;28;20473;-90
2023/05/08 11:08:24;;;;;;;20.02;16.45;;;15.10;99.90;;;;;;5011885;28;20480;-88
2023/05/08 11:56:12;;;;;;;9.07;7.90;;;16.30;99.90;;;;;;6057992;22;4241609;-88
2023/05/08 11:59:43;;;;;;;;;;;;;;;;;;;;;
2023/05/08 12:16:50;;;;;;;8.68;4.38;;;19.60;99.90;;;;;;5989363;23;20012;-89
2023/05/08 12:20:14;;;;;;;3.80;3.50;;;20.90;54.20;;;;;;6058997;23;20021;-90
2023/05/08 12:27:13;;;;;;;;;;;;;;;;;;;;;
2023/05/08 12:31:02;;;;;;;4.05;2.90;;;20.80;73.70;;;;;;6130701;23;20109;-90
2023/05/08 12:34:16;;;;;;;4.80;2.88;;;21.40;1.00;;;;;;6131129;23;20030;-87
2023/05/08 12:37:04;;;;;;;8.40;3.13;;;22.30;99.90;;;;;;6132132;23;20093;-87
2023/05/08 12:40:22;;;;;;;4.53;3.53;;;22.10;99.90;;;;;;6110806;23;20040;-87
2023/05/08 12:43:15;;;;;;;5.82;3.58;;;22.40;99.90;;;;;;6124190;23;20026;-89
2023/05/08 12:46:05;;;;;;;6.07;3.83;;;23.10;94.90;;;;;;6134660;23;20103;-88
2023/05/08 12:49:06;;;;;;;6.07;4.90;;;22.90;1.00;;;;;;6224917;23;20090;-89
2023/05/08 12:52:18;;;;;;;5.55;4.95;;;22.20;1.00;;;;;;6223081;23;20024;-87
2023/05/08 12:55:38;;;;;;;7.80;6.45;;;21.50;1.00;;;;;;6224986;23;20035;-89
2023/05/08 12:59:08;;;;;;;;;;;;;;;;;;;;;
2023/05/08 13:02:22;;;;;;;7.63;6.15;;;21.00;43.50;;;;;;6153943;23;20119;-88
2023/05/08 13:05:43;;;;;;;9.02;7.97;;;21.40;1.00;;;;;;6152664;23;20030;-89
2023/05/08 13:08:59;;;;;;;9.88;8.23;;;21.00;1.00;;;;;;6035363;23;20138;-87
2023/05/08 13:16:44;;;;;;;9.07;8.07;;;20.60;1.00;;;;;;5977898;24;20062;-91
2023/05/08 13:20:09;;;;;;;;;;;;;;;;;;;;;
2023/05/08 13:23:45;;;;;;;;;;;;;;;;;;;;;
2023/05/08 13:26:34;;;;;;;12.20;7.82;;;20.70;1.00;;;;;;5909874;24;20069;-88
2023/05/08 13:29:37;;;;;;;8.52;7.63;;;20.70;1.00;;;;;;5937262;24;20013;-86
2023/05/08 13:32:31;;;;;;;6.78;5.88;;;20.80;1.00;;;;;;5965907;23;20073;-87
2023/05/08 13:35:44;;;;;;;7.85;6.28;;;20.50;1.00;;;;;;5993835;24;20024;-88
2023/05/08 13:38:34;;;;;;;6.35;5.75;;;20.50;1.00;;;;;;6256452;23;20142;-88
2023/05/08 13:41:22;;;;;;;5.60;5.10;;;20.60;1.00;;;;;;6229788;23;20424;-84
2023/05/08 13:44:30;;;;;;;6.32;5.72;;;21.00;1.00;;;;;;6251423;23;20024;-87
2023/05/08 13:47:18;;;;;;;6.07;5.00;;;23.20;1.00;;;;;;6228401;23;20028;-88
2023/05/08 13:50:06;;;;;;;5.93;5.32;;;24.50;99.90;;;;;;6223631;23;20032;-85
2023/05/08 13:52:54;;;;;;;6.72;5.05;;;26.10;99.90;;;;;;6224493;23;20042;-85
2023/05/08 13:55:46;;;;;;;5.18;4.68;;;26.80;99.90;;;;;;6242763;23;20129;-85
2023/05/08 13:58:36;;;;;;;7.43;6.55;;;25.10;99.90;;;;;;6223147;23;20020;-86
2023/05/08 14:01:26;;;;;;;8.48;7.47;;;23.40;99.90;;;;;;6222377;23;20032;-87
2023/05/08 14:04:24;;;;;;;9.55;7.80;;;22.00;99.90;;;;;;6222139;23;20036;-87
2023/05/08 14:07:28;;;;;;;7.40;6.60;;;21.20;99.90;;;;;;6242998;23;20550;-86
2023/05/08 14:10:20;;;;;;;11.15;6.65;;;21.00;99.90;;;;;;6243899;23;20102;-86
2023/05/08 14:13:09;;;;;;;8.43;7.53;;;21.20;99.90;;;;;;6251710;22;20024;-85
2023/05/08 14:16:09;;;;;;;8.50;7.57;;;21.20;99.90;;;;;;6229645;23;20051;-88
2023/05/08 14:18:58;;;;;;;8.30;7.40;;;21.10;99.90;;;;;;6221407;23;20028;-89
2023/05/08 14:21:47;;;;;;;7.70;6.93;;;21.70;99.90;;;;;;6220976;23;20028;-86
2023/05/08 14:24:36;;;;;;;10.30;7.72;;;21.70;99.90;;;;;;6242062;23;20024;-87
2023/05/08 14:27:26;;;;;;;8.35;5.95;;;21.40;99.90;;;;;;6223486;23;20035;-87
2023/05/08 14:30:13;;;;;;;7.57;5.25;;;21.60;99.90;;;;;;6243302;23;20059;-88
2023/05/08 14:33:04;;;;;;;7.72;6.93;;;23.00;99.90;;;;;;6222602;23;20020;-85
2023/05/08 14:35:53;;;;;;;;;;;22.90;99.90;;;;;;6221481;23;20094;-86
2023/05/08 14:38:43;;;;;;;10.10;7.43;;;22.40;99.90;;;;;;6245717;23;20302;-86
2023/05/08 14:41:33;;;;;;;9.48;7.43;;;22.20;99.90;;;;;;6245141;23;20291;-86
2023/05/08 14:44:24;;;;;;;7.78;7.05;;;22.60;99.90;;;;;;6246200;23;20032;-88
2023/05/08 14:47:13;;;;;;;8.93;7.75;;;21.90;99.90;;;;;;6223601;23;20028;-86
2023/05/08 14:50:03;;;;;;;8.80;7.40;;;21.30;99.90;;;;;;6248203;23;20565;-86
2023/05/08 14:52:53;;;;;;;8.98;8.07;;;20.40;99.90;;;;;;6246039;23;20020;-85
2023/05/08 14:55:53;;;;;;;11.45;9.07;;;19.60;99.90;;;;;;6245893;23;20024;-84
2023/05/08 14:58:44;;;;;;;13.02;10.55;;;19.00;1.00;;;;;;6224869;23;20020;-85
2023/05/08 15:01:41;;;;;;;11.85;9.60;;;18.40;1.00;;;;;;6222393;23;20040;-86
2023/05/08 15:04:29;;;;;;;11.27;9.70;;;18.10;1.00;;;;;;6229397;23;20043;-84
2023/05/08 15:07:19;;;;;;;13.23;11.75;;;17.90;99.90;;;;;;6225768;23;20047;-84
2023/05/08 15:10:10;;;;;;;13.90;12.50;;;17.80;99.90;;;;;;6248739;22;20303;-86
2023/05/08 15:13:00;;;;;;;13.60;12.20;;;17.60;99.90;;;;;;6228420;23;20431;-86
2023/05/08 15:15:50;;;;;;;19.40;14.20;;;17.60;99.90;;;;;;6228128;23;20112;-85
2023/05/08 15:18:40;;;;;;;22.08;16.92;;;17.50;1.00;;;;;;6251115;22;20697;-87
2023/05/08 15:21:32;;;;;;;22.13;18.05;;;17.40;99.90;;;;;;6227048;23;20074;-89
2023/05/08 15:24:24;;;;;;;21.58;19.30;;;17.20;1.00;;;;;;6229480;23;20030;-87
2023/05/08 15:27:11;;;;;;;27.05;22.02;;;17.00;1.00;;;;;;6227540;23;20050;-86
2023/05/08 15:30:01;;;;;;;32.72;24.52;;;16.70;1.00;;;;;;6226687;23;20046;-88
2023/05/08 15:32:51;;;;;;;33.15;25.85;;;16.40;54.10;;;;;;6251956;22;20043;-86
2023/05/08 15:35:41;;;;;;;35.15;26.27;;;16.20;1.00;;;;;;6249671;23;20024;-88
2023/05/08 15:38:29;;;;;;;34.28;27.33;;;16.00;99.90;;;;;;6250648;22;20378;-88
2023/05/08 15:41:16;;;;;;;38.00;28.40;;;15.90;8.60;;;;;;6224890;23;20043;-87
2023/05/08 15:44:03;;;;;;;41.85;28.90;;;15.80;99.90;;;;;;6220152;23;20039;-85
2023/05/08 15:46:50;;;;;;;33.47;26.70;;;15.80;99.90;;;;;;6221855;23;20137;-88
2023/05/08 15:49:41;;;;;;;39.42;28.70;;;15.80;99.90;;;;;;6222036;23;20367;-87
2023/05/08 15:52:32;;;;;;;40.30;28.50;;;15.90;99.90;;;;;;6248057;22;20572;-88
2023/05/08 15:55:24;;;;;;;43.10;31.27;;;15.80;99.90;;;;;;6223419;23;20035;-89
2023/05/08 15:58:11;;;;;;;40.40;30.90;;;15.80;99.90;;;;;;6243142;23;20064;-88
2023/05/08 16:01:03;;;;;;;40.42;30.08;;;15.70;99.90;;;;;;6246722;22;20083;-88
2023/05/08 16:03:50;;;;;;;47.22;33.50;;;15.70;99.90;;;;;;6223578;23;20330;-87
2023/05/08 16:06:40;;;;;;;44.88;33.80;;;15.60;99.90;;;;;;6246998;22;20101;-88
2023/05/08 16:09:27;;;;;;;46.42;33.15;;;15.60;99.90;;;;;;6224284;23;20031;-87
2023/05/08 16:12:16;;;;;;;47.28;34.65;;;15.50;99.90;;;;;;6244986;23;20020;-86
2023/05/08 16:15:04;;;;;;;50.60;35.50;;;15.50;99.90;;;;;;6244413;23;20284;-86
2023/05/08 16:18:01;;;;;;;50.97;36.28;;;15.50;99.90;;;;;;6247343;22;20035;-83
2023/05/08 16:20:49;;;;;;;50.65;36.45;;;15.50;99.90;;;;;;6224965;23;20448;-86
2023/05/08 16:23:36;;;;;;;54.08;37.55;;;15.50;99.90;;;;;;6247331;23;20118;-87
2023/05/08 16:26:26;;;;;;;51.25;36.10;;;15.50;99.90;;;;;;6228902;23;20032;-87
2023/05/08 16:29:14;;;;;;;50.97;36.47;;;15.50;99.90;;;;;;6225093;23;20038;-88
2023/05/08 16:32:04;;;;;;;51.35;36.10;;;15.50;99.90;;;;;;6244924;23;20370;-87
2023/05/08 16:35:01;;;;;;;52.63;35.70;;;15.40;99.90;;;;;;6224809;23;20028;-86
2023/05/08 16:37:48;;;;;;;50.53;35.22;;;15.30;99.90;;;;;;6222826;23;20585;-87
2023/05/08 16:40:40;;;;;;;48.92;35.13;;;15.30;99.90;;;;;;6246964;23;20031;-88
2023/05/08 16:43:28;;;;;;;50.63;34.47;;;15.30;99.90;;;;;;6246747;23;20050;-86
2023/05/08 16:46:22;;;;;;;47.55;35.28;;;15.20;99.90;;;;;;6224479;23;20338;-89
2023/05/08 16:49:18;;;;;;;46.08;32.65;;;15.20;99.90;;;;;;6225956;23;20331;-89
2023/05/08 16:52:11;;;;;;;43.88;32.50;;;15.20;99.90;;;;;;6244487;23;20035;-90
2023/05/08 16:54:59;;;;;;;;;;;15.10;99.90;;;;;;6224775;23;20031;-88
2023/05/08 16:57:47;;;;;;;38.70;28.67;;;15.10;99.90;;;;;;6244852;23;19919;-89
2023/05/08 17:00:40;;;;;;;41.20;27.63;;;15.00;99.90;;;;;;6233411;23;20423;-88